Time;durP1;ratioP1;P1;durP2;ratioP2;P2;SDS_P1;SDS_P2;PMS_P1;PMS_P2;Temp;Humidity;BMP_temperature;BMP_pressure;BME280_temperature;BME280_humidity;BME280_pressure;Samples;Min_cycle;Max_cycle;Signal;HPM_P1;HPM_P2
2022/06/30 00:00:47;;;;;;;;;0.00;0.00;;;;;19.66;52.92;100627.47;5077475;27;45400;-65
2022/06/30 00:03:13;;;;;;;;;0.00;0.00;;;;;19.67;53.30;100636.44;5075090;27;45530;-68
2022/06/30 00:05:39;;;;;;;;;1.00;1.00;;;;;19.62;53.46;100628.75;5072574;27;45413;-66
2022/06/30 00:08:04;;;;;;;;;0.00;0.00;;;;;19.60;53.69;100629.88;5074266;27;45400;-67
2022/06/30 00:10:30;;;;;;;;;0.00;0.00;;;;;19.47;54.66;100613.97;5087207;27;45443;-64
2022/06/30 00:12:56;;;;;;;;;0.00;0.00;;;;;19.49;55.13;100630.00;5070840;27;46345;-68
2022/06/30 00:15:21;;;;;;;;;0.00;0.00;;;;;19.41;55.44;100636.13;5057514;27;45323;-60
2022/06/30 00:17:48;;;;;;;;;0.00;0.00;;;;;19.36;54.77;100628.44;5077425;27;45576;-63
2022/06/30 00:20:13;;;;;;;;;0.67;0.67;;;;;19.38;55.22;100639.94;5076946;27;47218;-64
2022/06/30 00:22:39;;;;;;;;;0.00;0.00;;;;;19.33;55.27;100650.28;5079234;27;45408;-62
2022/06/30 00:25:04;;;;;;;;;0.00;0.00;;;;;19.27;55.74;100639.19;5078610;27;45187;-62
2022/06/30 00:27:30;;;;;;;;;1.00;1.00;;;;;19.18;55.56;100632.84;5077457;27;45454;-65
2022/06/30 00:29:56;;;;;;;;;0.00;0.00;;;;;19.12;54.88;100636.06;5081412;27;45378;-64
2022/06/30 00:32:21;;;;;;;;;0.00;0.00;;;;;19.10;54.79;100638.06;5079414;27;45930;-61
2022/06/30 00:34:47;;;;;;;;;0.67;0.67;;;;;19.06;54.82;100642.03;5058747;27;45346;-58
2022/06/30 00:37:12;;;;;;;;;0.00;0.00;;;;;19.00;55.06;100631.78;5078385;27;45546;-58
2022/06/30 00:39:38;;;;;;;;;2.00;1.00;;;;;19.03;54.81;100635.09;5076731;27;45963;-62
2022/06/30 00:42:05;;;;;;;;;0.00;0.00;;;;;19.04;55.46;100649.41;5076543;27;45354;-60
2022/06/30 00:44:31;;;;;;;;;0.00;0.00;;;;;19.01;55.11;100655.94;5078733;27;45338;-60
2022/06/30 00:46:57;;;;;;;;;0.00;0.00;;;;;18.96;55.06;100646.53;5080220;27;45479;-59
2022/06/30 00:49:22;;;;;;;;;2.00;1.00;;;;;18.97;55.82;100649.09;5077825;27;46131;-63
2022/06/30 00:51:48;;;;;;;;;0.00;0.00;;;;;18.95;56.03;100659.16;5078091;27;45426;-63
2022/06/30 00:54:13;;;;;;;;;1.00;1.00;;;;;18.74;56.11;100631.44;5078556;27;45224;-58
2022/06/30 00:56:43;;;;;;;;;1.00;1.00;;;;;18.85;56.27;100655.59;5076048;27;45558;-59
2022/06/30 00:59:12;;;;;;;;;0.00;0.00;;;;;18.80;55.87;100660.56;5080306;27;46073;-62
2022/06/30 01:01:38;;;;;;;;;1.00;1.00;;;;;18.73;56.05;100652.16;5076771;27;45364;-63
2022/06/30 01:04:06;;;;;;;;;4.67;1.00;;;;;18.62;56.50;100635.19;5077053;27;45297;-66
2022/06/30 01:06:32;;;;;;;;;1.00;1.00;;;;;18.62;56.50;100632.50;5077522;27;45584;-63
2022/06/30 01:08:58;;;;;;;;;0.00;0.00;;;;;18.58;56.92;100634.63;5076744;27;46071;-62
2022/06/30 01:14:07;;;;;;;;;3.33;1.33;;;;;18.39;57.53;100621.97;5063377;27;45372;-64
2022/06/30 01:16:33;;;;;;;;;5.00;0.00;;;;;18.45;57.78;100631.31;5080163;27;45297;-59
2022/06/30 01:18:58;;;;;;;;;0.00;0.00;;;;;18.42;58.08;100632.44;5078363;27;45599;-61
2022/06/30 01:21:27;;;;;;;;;0.33;0.33;;;;;18.34;57.88;100617.94;5078880;27;45790;-59
2022/06/30 01:23:53;;;;;;;;;1.00;1.00;;;;;18.38;57.46;100636.41;5078695;27;45261;-58
2022/06/30 01:26:21;;;;;;;;;1.00;1.00;;;;;18.21;58.91;100624.41;5077469;27;45306;-61
2022/06/30 01:28:47;;;;;;;;;1.00;1.00;;;;;18.28;57.74;100647.13;5076150;27;46435;-60
2022/06/30 01:31:12;;;;;;;;;0.00;0.00;;;;;18.26;58.33;100637.47;5076698;27;45478;-57
2022/06/30 01:33:38;;;;;;;;;3.67;1.00;;;;;18.22;57.74;100626.09;5075757;27;46426;-56
2022/06/30 01:36:03;;;;;;;;;1.00;1.00;;;;;18.14;58.84;100620.56;5068479;27;45543;-57
2022/06/30 01:38:29;;;;;;;;;0.67;0.67;;;;;18.12;58.23;100633.31;5069603;27;45407;-56
2022/06/30 01:40:54;;;;;;;;;1.00;1.00;;;;;18.13;58.79;100648.47;5077216;27;45414;-61
2022/06/30 01:43:20;;;;;;;;;2.00;2.00;;;;;18.02;58.86;100618.94;5080405;27;45792;-59
2022/06/30 01:45:46;;;;;;;;;0.00;0.00;;;;;18.05;59.15;100634.81;5078541;27;45620;-63
2022/06/30 01:48:11;;;;;;;;;1.00;1.00;;;;;18.06;58.96;100641.03;5076682;27;45434;-62
2022/06/30 01:50:37;;;;;;;;;2.00;1.00;;;;;17.95;58.79;100633.88;5077872;27;45236;-67
2022/06/30 01:53:02;;;;;;;;;2.00;2.00;;;;;17.96;59.97;100638.28;5078153;27;45504;-67
2022/06/30 01:55:28;;;;;;;;;0.00;0.00;;;;;17.91;59.90;100653.97;5076848;27;45499;-68
2022/06/30 01:57:54;;;;;;;;;1.00;1.00;;;;;17.83;60.09;100657.31;5077420;27;46129;-69
2022/06/30 02:00:24;;;;;;;;;3.00;2.00;;;;;17.83;60.18;100651.94;5078687;27;45495;-68
2022/06/30 02:02:50;;;;;;;;;3.00;2.00;;;;;17.80;60.76;100646.81;5075441;27;45555;-64
2022/06/30 02:05:17;;;;;;;;;1.00;1.00;;;;;17.80;61.11;100651.34;5076865;27;45377;-63
2022/06/30 02:07:42;;;;;;;;;2.00;2.00;;;;;17.78;61.04;100658.72;5072843;27;45665;-69
2022/06/30 02:10:17;;;;;;;;;3.00;1.33;;;;;17.65;59.14;100653.47;5077636;27;45480;-67
2022/06/30 02:12:46;;;;;;;;;1.33;1.33;;;;;17.72;60.22;100651.19;5079653;27;45500;-66
2022/06/30 02:15:14;;;;;;;;;3.67;2.00;;;;;17.64;60.79;100644.56;5076682;27;45681;-70
2022/06/30 02:17:40;;;;;;;;;1.00;1.00;;;;;17.62;61.30;100638.47;5075108;27;45554;-66
2022/06/30 02:20:09;;;;;;;;;2.00;2.00;;;;;17.61;61.57;100628.69;5073040;27;46211;-65
2022/06/30 02:22:36;;;;;;;;;4.00;2.00;;;;;17.64;62.52;100631.13;5079397;27;45534;-57
2022/06/30 02:25:03;;;;;;;;;2.00;2.00;;;;;17.66;62.49;100637.22;5076558;27;45523;-57
2022/06/30 02:27:28;;;;;;;;;2.00;2.00;;;;;17.63;61.76;100625.88;5077140;27;46261;-62
2022/06/30 02:29:54;;;;;;;;;2.00;2.00;;;;;17.60;61.62;100607.31;5075886;27;45487;-55
2022/06/30 02:32:20;;;;;;;;;3.67;2.00;;;;;17.70;61.51;100624.38;5076838;27;45445;-62
2022/06/30 02:34:46;;;;;;;;;1.00;1.00;;;;;17.70;61.68;100624.38;5074008;27;45250;-65
2022/06/30 02:37:12;;;;;;;;;2.33;2.00;;;;;17.72;61.80;100632.34;5075305;27;46150;-68
2022/06/30 02:39:37;;;;;;;;;2.33;1.67;;;;;17.53;61.26;100606.97;5078875;27;45262;-65
2022/06/30 02:42:03;;;;;;;;;2.00;2.00;;;;;17.73;61.27;100639.44;5076554;27;45306;-65
2022/06/30 02:44:29;;;;;;;;;2.33;2.33;;;;;17.73;61.14;100647.50;5075738;27;45684;-65
2022/06/30 02:46:55;;;;;;;;;2.00;2.00;;;;;17.71;60.54;100638.69;5077976;27;45380;-65
2022/06/30 02:49:21;;;;;;;;;2.67;2.00;;;;;17.67;60.72;100622.78;5075480;27;46136;-63
2022/06/30 02:51:46;;;;;;;;;1.00;1.00;;;;;17.77;60.44;100636.34;5073968;27;45363;-60
2022/06/30 02:54:12;;;;;;;;;2.67;2.00;;;;;17.80;60.28;100629.84;5077166;28;45528;-60
2022/06/30 02:56:37;;;;;;;;;3.00;1.67;;;;;17.80;59.29;100645.97;5075629;27;46073;-60
2022/06/30 02:59:03;;;;;;;;;2.00;2.00;;;;;17.71;59.35;100633.28;5078382;27;45582;-62
2022/06/30 03:01:28;;;;;;;;;2.00;0.67;;;;;17.76;60.38;100644.53;5065896;27;45663;-59
2022/06/30 03:03:54;;;;;;;;;3.67;2.00;;;;;17.73;60.59;100644.81;5070773;27;45615;-60
2022/06/30 03:06:19;;;;;;;;;2.00;2.00;;;;;17.63;60.89;100640.16;5072338;27;46596;-62
2022/06/30 03:08:45;;;;;;;;;1.00;1.00;;;;;17.53;61.46;100641.06;5071162;27;45428;-62
2022/06/30 03:11:16;;;;;;;;;1.33;1.33;;;;;17.52;61.40;100650.13;5056334;28;45728;-61
2022/06/30 03:13:43;;;;;;;;;1.67;1.67;;;;;17.58;61.45;100652.31;5072889;27;45486;-60
2022/06/30 03:16:08;;;;;;;;;3.00;3.00;;;;;17.58;61.45;100646.94;5079429;27;45495;-64
2022/06/30 03:18:33;;;;;;;;;1.00;1.00;;;;;17.61;61.13;100655.59;5075431;27;45259;-59
2022/06/30 03:20:59;;;;;;;;;1.00;1.00;;;;;17.62;60.76;100634.91;5075695;28;45326;-63
2022/06/30 03:23:26;;;;;;;;;3.33;2.67;;;;;17.74;60.81;100663.50;5077347;27;45352;-59
2022/06/30 03:25:52;;;;;;;;;2.00;2.00;;;;;17.79;60.24;100660.41;5074082;27;45361;-69
2022/06/30 03:28:17;;;;;;;;;2.00;2.00;;;;;17.77;60.66;100647.09;5076286;27;45271;-69
2022/06/30 03:30:45;;;;;;;;;3.00;1.00;;;;;17.81;60.50;100637.78;5076463;27;45309;-64
2022/06/30 03:33:10;;;;;;;;;2.00;2.00;;;;;17.82;60.82;100634.09;5076550;27;45385;-67
2022/06/30 03:35:35;;;;;;;;;1.00;1.00;;;;;17.82;60.26;100641.31;5076148;27;46251;-68
2022/06/30 03:38:03;;;;;;;;;2.67;2.33;;;;;17.79;60.92;100630.81;5076520;27;45474;-62
2022/06/30 03:40:29;;;;;;;;;3.00;3.00;;;;;17.83;60.87;100645.69;5076382;27;45344;-64
2022/06/30 03:42:54;;;;;;;;;3.00;2.00;;;;;17.86;60.73;100659.78;5075889;27;45349;-61
2022/06/30 03:45:19;;;;;;;;;2.67;1.00;;;;;17.87;61.02;100648.03;5076401;27;46150;-63
2022/06/30 03:47:45;;;;;;;;;2.00;2.00;;;;;17.87;60.20;100644.47;5075749;28;45456;-57
2022/06/30 03:50:10;;;;;;;;;3.33;3.00;;;;;17.90;60.63;100660.34;5077117;27;45333;-63
2022/06/30 03:52:36;;;;;;;;;4.00;2.00;;;;;17.88;60.68;100670.41;5076675;27;45331;-61
2022/06/30 03:55:01;;;;;;;;;1.00;1.00;;;;;17.87;60.49;100674.94;5074600;27;45622;-60
2022/06/30 03:57:26;;;;;;;;;2.33;2.33;;;;;17.84;60.63;100671.63;5078954;27;45416;-63
2022/06/30 03:59:52;;;;;;;;;2.67;2.67;;;;;17.84;60.54;100677.00;5078459;27;45341;-60
2022/06/30 04:02:17;;;;;;;;;2.00;2.00;;;;;17.83;59.92;100676.16;5082616;27;45747;-66
2022/06/30 04:04:42;;;;;;;;;1.00;1.00;;;;;17.83;60.85;100672.59;5078650;27;45538;-69
2022/06/30 04:07:08;;;;;;;;;2.33;2.00;;;;;17.86;60.59;100677.75;5079667;27;45251;-67
2022/06/30 04:09:33;;;;;;;;;1.67;1.67;;;;;17.82;60.39;100673.59;5095792;27;45373;-62
2022/06/30 04:11:59;;;;;;;;;1.33;1.00;;;;;17.80;60.08;100679.09;5080041;27;45244;-60
2022/06/30 04:14:24;;;;;;;;;2.00;2.00;;;;;17.78;60.52;100682.91;5079244;27;45988;-62
2022/06/30 04:16:49;;;;;;;;;2.00;2.00;;;;;17.72;61.19;100670.00;5077092;27;45369;-66
2022/06/30 04:19:15;;;;;;;;;7.00;3.67;;;;;17.71;62.19;100668.25;5079714;27;45326;-63
2022/06/30 04:21:40;;;;;;;;;1.67;1.67;;;;;17.68;61.68;100664.84;5079811;27;45552;-61
2022/06/30 04:24:06;;;;;;;;;3.00;3.00;;;;;17.60;60.44;100661.94;5077767;27;45764;-60
2022/06/30 04:26:31;;;;;;;;;3.33;2.00;;;;;17.58;62.98;100666.59;5079817;27;45255;-64
2022/06/30 04:28:56;;;;;;;;;5.00;4.00;;;;;17.53;63.09;100666.13;5079205;27;45305;-62
2022/06/30 04:34:05;;;;;;;;;3.00;3.00;;;;;17.49;63.10;100670.06;5080182;27;45492;-54
2022/06/30 04:36:31;;;;;;;;;2.67;2.00;;;;;17.48;63.57;100680.94;5079461;27;45506;-61
2022/06/30 04:38:56;;;;;;;;;2.67;2.67;;;;;17.41;63.98;100685.97;5076880;27;45420;-55
2022/06/30 04:41:24;;;;;;;;;4.33;3.00;;;;;17.35;65.19;100691.88;5080320;27;45649;-60
2022/06/30 04:43:57;;;;;;;;;2.67;2.67;;;;;17.29;65.00;100679.75;5097802;27;46224;-58
2022/06/30 04:46:24;;;;;;;;;3.00;3.00;;;;;17.23;64.57;100684.81;5077198;27;45427;-65
2022/06/30 04:48:50;;;;;;;;;4.00;4.00;;;;;17.26;65.69;100703.38;5078961;27;45407;-57
2022/06/30 04:51:16;;;;;;;;;3.00;3.00;;;;;17.21;66.29;100692.16;5080547;27;45495;-57
2022/06/30 04:53:42;;;;;;;;;3.00;3.00;;;;;17.18;65.86;100681.63;5079108;27;45972;-67
2022/06/30 04:56:09;;;;;;;;;4.00;2.00;;;;;17.13;67.12;100663.22;5077723;27;45290;-57
2022/06/30 04:58:35;;;;;;;;;7.67;5.00;;;;;17.17;66.56;100678.09;5077237;28;45362;-55
2022/06/30 05:01:04;;;;;;;;;3.67;2.00;;;;;17.08;67.55;100660.91;5081093;27;45520;-57
2022/06/30 05:03:30;;;;;;;;;4.67;2.33;;;;;17.12;66.66;100668.72;5067598;27;45417;-61
2022/06/30 05:05:56;;;;;;;;;6.00;2.00;;;;;17.10;66.76;100655.41;5060712;27;47300;-60
2022/06/30 05:08:25;;;;;;;;;4.33;3.00;;;;;17.04;66.18;100654.06;5076776;27;45362;-56
2022/06/30 05:10:51;;;;;;;;;4.00;3.00;;;;;17.01;65.92;100656.16;5078408;27;45399;-59
2022/06/30 05:13:16;;;;;;;;;3.67;2.00;;;;;16.99;66.57;100650.06;5075660;27;46111;-61
2022/06/30 05:15:45;;;;;;;;;4.00;3.00;;;;;16.92;67.55;100652.38;5076702;27;45464;-61
2022/06/30 05:18:10;;;;;;;;;3.00;3.00;;;;;16.97;67.89;100657.38;5076970;28;45447;-57
2022/06/30 05:20:36;;;;;;;;;5.00;3.00;;;;;16.99;67.43;100653.59;5080131;27;45421;-59
2022/06/30 05:23:02;;;;;;;;;4.33;2.67;;;;;16.99;66.99;100650.91;5077950;27;46848;-56
2022/06/30 05:28:12;;;;;;;;;4.67;3.00;;;;;17.01;66.28;100656.16;5077813;28;45535;-58
2022/06/30 05:30:37;;;;;;;;;4.67;3.00;;;;;16.99;66.80;100661.66;5078487;27;45718;-56
2022/06/30 05:33:03;;;;;;;;;4.00;2.33;;;;;16.99;66.08;100683.16;5078767;27;45999;-59
2022/06/30 05:35:28;;;;;;;;;4.00;4.00;;;;;17.01;67.17;100685.69;5065872;27;45494;-57
2022/06/30 05:37:54;;;;;;;;;5.67;4.00;;;;;17.00;67.42;100692.91;5058744;28;45307;-59
2022/06/30 05:40:19;;;;;;;;;3.00;3.00;;;;;17.02;67.19;100688.25;5058508;28;45337;-62
2022/06/30 05:42:45;;;;;;;;;3.00;3.00;;;;;17.03;66.61;100689.13;5058771;28;45223;-57
2022/06/30 05:45:11;;;;;;;;;3.00;3.00;;;;;16.99;67.13;100682.28;5072860;27;45353;-56
2022/06/30 05:47:50;;;;;;;;;3.00;3.00;;;;;17.02;67.40;100682.88;5075301;27;45354;-59
2022/06/30 05:50:20;;;;;;;;;4.00;3.00;;;;;17.04;65.97;100691.66;5077589;27;45319;-58
2022/06/30 05:52:46;;;;;;;;;5.67;5.00;;;;;17.04;66.16;100686.31;5073873;27;45457;-56
2022/06/30 05:55:12;;;;;;;;;4.00;4.00;;;;;17.01;66.47;100697.31;5084917;27;45462;-62
2022/06/30 05:57:54;;;;;;;;;3.67;2.33;;;;;17.02;66.94;100699.00;5071457;27;45413;-60
2022/06/30 06:00:22;;;;;;;;;3.00;3.00;;;;;17.04;65.97;100688.13;5068916;27;45548;-58
2022/06/30 06:02:47;;;;;;;;;3.67;2.67;;;;;17.03;66.45;100698.03;5073431;27;45453;-64
2022/06/30 06:05:14;;;;;;;;;3.00;1.67;;;;;17.05;66.66;100696.06;5078104;27;45344;-60
2022/06/30 06:07:39;;;;;;;;;2.00;2.00;;;;;17.00;68.44;100679.47;5059236;27;45454;-59
2022/06/30 06:10:05;;;;;;;;;4.00;2.67;;;;;17.01;68.04;100681.19;5057873;28;45353;-60
2022/06/30 06:12:31;;;;;;;;;3.00;3.00;;;;;17.03;67.45;100678.38;5073489;27;45331;-60
2022/06/30 06:14:56;;;;;;;;;6.00;3.00;;;;;17.08;68.29;100686.94;5077427;27;45363;-62
2022/06/30 06:17:22;;;;;;;;;3.00;2.67;;;;;17.07;68.18;100688.75;5072174;27;45254;-58
2022/06/30 06:19:47;;;;;;;;;4.00;2.33;;;;;17.08;67.63;100679.72;5072555;27;45515;-66
2022/06/30 06:22:13;;;;;;;;;6.67;5.00;;;;;17.10;68.18;100684.97;5072310;27;45374;-65
2022/06/30 06:24:38;;;;;;;;;8.33;8.33;;;;;17.14;68.24;100685.56;5066750;28;45160;-64
2022/06/30 06:27:04;;;;;;;;;4.00;4.00;;;;;17.08;67.40;100682.41;5061810;27;45336;-61
2022/06/30 06:29:30;;;;;;;;;5.33;5.33;;;;;17.12;67.09;100671.41;5065760;28;45804;-62
2022/06/30 06:31:55;;;;;;;;;3.00;1.67;;;;;17.13;67.70;100673.09;5069780;27;45618;-65
2022/06/30 06:34:21;;;;;;;;;4.33;3.33;;;;;17.20;68.10;100680.53;5073258;27;46397;-65
2022/06/30 06:36:47;;;;;;;;;3.33;3.33;;;;;17.22;68.34;100680.41;5069568;27;45550;-62
2022/06/30 06:39:12;;;;;;;;;3.33;3.33;;;;;17.29;67.36;100686.97;5071697;27;45393;-62
2022/06/30 06:41:38;;;;;;;;;7.00;7.00;;;;;17.33;68.30;100688.44;5068590;27;45561;-61
2022/06/30 06:44:04;;;;;;;;;4.33;4.33;;;;;17.29;68.49;100679.75;5073425;27;45587;-62
2022/06/30 06:46:30;;;;;;;;;4.00;4.00;;;;;17.33;68.42;100685.75;5073451;27;46317;-65
2022/06/30 06:48:59;;;;;;;;;7.33;6.00;;;;;17.34;67.82;100692.84;5076068;27;45701;-62
2022/06/30 06:51:25;;;;;;;;;7.33;2.67;;;;;17.28;68.11;100693.34;5057476;27;46116;-61
2022/06/30 06:53:51;;;;;;;;;5.00;5.00;;;;;17.28;69.39;100702.25;5056634;28;45251;-64
2022/06/30 06:56:16;;;;;;;;;6.33;4.00;;;;;17.27;68.23;100711.31;5076400;27;45480;-64
2022/06/30 06:58:42;;;;;;;;;5.33;5.33;;;;;17.25;69.02;100715.09;5073664;28;45824;-61
2022/06/30 07:01:07;;;;;;;;;4.00;3.00;;;;;17.23;68.66;100717.06;5073152;27;46129;-59
2022/06/30 07:03:33;;;;;;;;;6.00;6.00;;;;;17.23;68.32;100720.59;5069988;27;45432;-62
2022/06/30 07:05:58;;;;;;;;;5.67;5.00;;;;;17.28;68.26;100730.97;5056803;28;45902;-64
2022/06/30 07:08:24;;;;;;;;;4.00;4.00;;;;;17.28;68.22;100730.97;5068238;28;45386;-65
2022/06/30 07:10:49;;;;;;;;;5.00;4.00;;;;;17.33;69.01;100742.22;5067711;27;45531;-61
2022/06/30 07:13:15;;;;;;;;;5.33;5.33;;;;;17.35;68.19;100749.16;5070381;27;45418;-65
2022/06/30 07:15:41;;;;;;;;;4.67;4.67;;;;;17.24;68.14;100743.81;5075146;27;46239;-64
2022/06/30 07:18:06;;;;;;;;;4.00;4.00;;;;;17.24;69.26;100745.66;5060521;27;45673;-65
2022/06/30 07:20:31;;;;;;;;;5.00;5.00;;;;;17.19;69.74;100747.84;5077314;27;46265;-60
2022/06/30 07:22:57;;;;;;;;;6.67;5.00;;;;;17.16;69.09;100732.81;5070609;27;45456;-63
2022/06/30 07:25:23;;;;;;;;;4.67;4.67;;;;;17.20;69.41;100738.81;5085404;27;45318;-65
2022/06/30 07:27:48;;;;;;;;;3.33;3.33;;;;;17.21;68.82;100751.28;5068839;27;45401;-63
2022/06/30 07:30:14;;;;;;;;;9.00;8.00;;;;;17.14;69.29;100744.69;5053989;28;45378;-60
2022/06/30 07:32:39;;;;;;;;;6.00;4.33;;;;;17.15;70.39;100741.00;5071337;28;45520;-62
2022/06/30 07:35:06;;;;;;;;;8.00;7.00;;;;;17.14;69.67;100744.69;5071525;27;45543;-60
2022/06/30 07:37:37;;;;;;;;;5.00;4.00;;;;;17.10;70.24;100747.63;5071443;27;45440;-64
2022/06/30 07:40:04;;;;;;;;;6.00;6.00;;;;;17.04;70.68;100739.19;5070114;28;46509;-62
2022/06/30 07:42:29;;;;;;;;;7.00;5.67;;;;;17.03;70.21;100734.78;5071748;27;45722;-62
2022/06/30 07:44:54;;;;;;;;;5.67;5.67;;;;;16.99;69.18;100730.66;5069735;27;45483;-63
2022/06/30 07:47:20;;;;;;;;;5.67;5.67;;;;;16.95;69.16;100724.69;5071029;27;45622;-65
2022/06/30 07:49:45;;;;;;;;;7.00;4.00;;;;;16.89;69.49;100724.31;5072954;28;45815;-59
2022/06/30 07:52:11;;;;;;;;;6.00;5.00;;;;;16.87;70.27;100726.25;5060069;28;45614;-62
2022/06/30 07:54:36;;;;;;;;;4.00;4.00;;;;;16.89;71.27;100740.44;5063470;27;45650;-63
2022/06/30 07:57:02;;;;;;;;;6.33;6.00;;;;;16.82;71.10;100750.81;5050552;28;45620;-62
2022/06/30 07:59:27;;;;;;;;;5.00;4.33;;;;;16.85;72.17;100755.94;5067014;27;45412;-61
2022/06/30 08:01:56;;;;;;;;;6.00;4.33;;;;;16.83;70.73;100738.25;5070178;28;45539;-62
2022/06/30 08:04:21;;;;;;;;;6.33;4.67;;;;;16.82;72.58;100740.06;5064026;27;45434;-63
2022/06/30 08:06:47;;;;;;;;;5.67;5.33;;;;;16.82;72.80;100740.06;5086537;27;45392;-61
2022/06/30 08:09:12;;;;;;;;;5.67;4.33;;;;;16.74;72.21;100726.38;5061788;28;45415;-64
2022/06/30 08:11:38;;;;;;;;;5.67;5.67;;;;;16.81;70.73;100735.69;5076583;27;45457;-64
2022/06/30 08:14:04;;;;;;;;;2.33;2.33;;;;;16.74;69.54;100732.63;5096173;27;45417;-62
2022/06/30 08:16:30;;;;;;;;;5.33;4.00;;;;;16.70;72.62;100747.28;5077306;27;45613;-61
2022/06/30 08:18:55;;;;;;;;;4.67;4.67;;;;;16.62;71.72;100733.56;5074599;27;46190;-60
2022/06/30 08:21:21;;;;;;;;;4.33;4.00;;;;;16.61;70.80;100737.22;5073539;28;45419;-60
2022/06/30 08:23:46;;;;;;;;;2.00;2.00;;;;;16.55;70.83;100740.41;5078398;27;45582;-61
2022/06/30 08:26:12;;;;;;;;;2.67;2.67;;;;;16.48;69.81;100733.78;5066800;28;45676;-63
2022/06/30 08:28:37;;;;;;;;;5.33;5.33;;;;;16.37;71.67;100713.16;5086184;27;45405;-64
2022/06/30 08:31:03;;;;;;;;;2.33;2.33;;;;;16.45;70.31;100726.84;5077411;27;45313;-61
2022/06/30 08:33:29;;;;;;;;;2.67;2.67;;;;;16.42;70.08;100723.53;5076003;27;46898;-65
2022/06/30 08:35:55;;;;;;;;;9.33;6.00;;;;;16.42;68.84;100727.09;5076233;27;45377;-58
2022/06/30 08:38:25;;;;;;;;;3.33;3.33;;;;;16.32;69.16;100720.72;5073339;27;47121;-65
2022/06/30 08:43:35;;;;;;;;;5.33;3.00;;;;;16.31;68.90;100734.25;5069155;27;45732;-62
2022/06/30 08:46:03;;;;;;;;;2.33;2.00;;;;;16.29;68.75;100736.22;5075108;27;45254;-59
2022/06/30 08:48:29;;;;;;;;;2.33;2.33;;;;;16.23;68.73;100726.78;5078355;27;45575;-60
2022/06/30 08:51:01;;;;;;;;;3.33;2.00;;;;;16.19;68.01;100731.53;5071217;27;45470;-66
2022/06/30 08:53:31;;;;;;;;;2.33;2.33;;;;;16.15;69.33;100715.81;5063306;27;45428;-63
2022/06/30 08:55:58;;;;;;;;;3.00;2.00;;;;;16.18;69.22;100708.38;5067742;27;45551;-62
2022/06/30 08:58:24;;;;;;;;;2.00;2.00;;;;;16.22;69.75;100714.34;5083466;27;45500;-60
2022/06/30 09:00:51;;;;;;;;;1.33;1.33;;;;;16.25;69.26;100719.47;5059918;28;45343;-61
2022/06/30 09:03:17;;;;;;;;;1.00;1.00;;;;;16.23;68.74;100718.75;5074132;27;45466;-60
2022/06/30 09:05:46;;;;;;;;;3.67;2.00;;;;;16.26;69.45;100720.31;5071319;28;45703;-61
2022/06/30 09:08:13;;;;;;;;;2.00;2.00;;;;;16.20;68.64;100689.47;5076962;27;45937;-61
2022/06/30 09:10:55;;;;;;;;;2.00;2.00;;;;;16.27;68.91;100712.16;5075944;27;45477;-62
2022/06/30 09:13:23;;;;;;;;;1.67;1.67;;;;;16.30;69.38;100701.19;5077674;28;45603;-62
2022/06/30 09:15:49;;;;;;;;;2.00;2.00;;;;;16.26;67.76;100688.13;5073140;27;45397;-63
2022/06/30 09:18:27;;;;;;;;;5.00;2.00;;;;;16.23;68.62;100690.06;5065863;28;45471;-64
2022/06/30 09:20:54;;;;;;;;;4.00;3.00;;;;;16.28;69.65;100692.41;5073334;27;45592;-61
2022/06/30 09:23:28;;;;;;;;;7.33;5.00;;;;;16.25;71.43;100697.16;5078455;27;45361;-65
2022/06/30 09:25:56;;;;;;;;;4.00;2.67;;;;;16.21;71.21;100705.44;5079581;27;45326;-63
2022/06/30 09:28:38;;;;;;;;;3.33;3.33;;;;;16.22;70.46;100708.97;5071076;27;45350;-65
2022/06/30 09:31:04;;;;;;;;;3.67;3.00;;;;;16.20;70.19;100708.25;5077906;27;45469;-60
2022/06/30 09:33:40;;;;;;;;;3.67;3.67;;;;;16.17;71.09;100719.22;5078805;27;45417;-66
2022/06/30 09:36:25;;;;;;;;;2.00;2.00;;;;;16.20;71.01;100732.41;5078676;27;45428;-62
2022/06/30 09:39:03;;;;;;;;;3.00;3.00;;;;;16.21;70.95;100734.97;5081760;27;45337;-61
2022/06/30 09:41:30;;;;;;;;;3.00;3.00;;;;;16.22;69.91;100733.13;5074969;27;45165;-64
2022/06/30 09:43:56;;;;;;;;;4.33;3.00;;;;;16.16;71.09;100726.41;5057652;28;45455;-61
2022/06/30 09:46:21;;;;;;;;;4.67;3.67;;;;;16.19;71.94;100728.00;5076235;27;45549;-60
2022/06/30 09:48:47;;;;;;;;;6.00;5.00;;;;;16.23;71.83;100742.88;5075542;27;45688;-64
2022/06/30 09:51:12;;;;;;;;;3.00;3.00;;;;;16.22;70.46;100733.97;5076770;27;45405;-68
2022/06/30 09:53:38;;;;;;;;;3.33;2.00;;;;;16.24;70.92;100728.50;5074090;27;45360;-65
2022/06/30 09:56:12;;;;;;;;;3.00;3.00;;;;;16.21;71.16;100729.59;5076727;27;45655;-68
2022/06/30 09:58:42;;;;;;;;;3.67;3.67;;;;;16.11;71.72;100717.00;5057749;28;47212;-61
2022/06/30 10:01:08;;;;;;;;;5.00;3.67;;;;;16.14;72.25;100719.44;5057230;28;45358;-66
2022/06/30 10:03:43;;;;;;;;;3.00;3.00;;;;;16.18;71.02;100742.41;5057342;28;45411;-65
2022/06/30 10:06:11;;;;;;;;;3.33;3.00;;;;;16.20;72.99;100740.44;5058359;28;45440;-63
2022/06/30 10:08:37;;;;;;;;;4.67;4.00;;;;;16.18;72.51;100724.47;5074606;28;45776;-61
2022/06/30 10:11:05;;;;;;;;;3.00;3.00;;;;;16.30;73.11;100732.56;5076299;28;45409;-65
2022/06/30 10:13:35;;;;;;;;;3.00;3.00;;;;;16.26;70.60;100741.78;5077539;27;45372;-65
2022/06/30 10:16:03;;;;;;;;;2.00;2.00;;;;;16.19;72.33;100738.75;5068618;28;45514;-68
2022/06/30 10:18:31;;;;;;;;;2.33;2.33;;;;;16.13;73.14;100731.16;5060445;27;47408;-64
2022/06/30 10:20:58;;;;;;;;;2.67;2.67;;;;;16.26;73.27;100753.38;5076596;28;45266;-68
2022/06/30 10:23:24;;;;;;;;;4.67;3.00;;;;;16.18;76.26;100753.13;5073501;27;45567;-65
2022/06/30 10:25:52;;;;;;;;;3.00;3.00;;;;;16.14;72.78;100752.50;5077962;27;45791;-65
2022/06/30 10:28:19;;;;;;;;;6.33;6.00;;;;;16.12;73.74;100761.63;5058409;28;47111;-62
2022/06/30 10:31:00;;;;;;;;;3.00;3.00;;;;;16.14;74.83;100765.06;5078631;27;45459;-64
2022/06/30 10:33:35;;;;;;;;;5.33;4.00;;;;;16.00;74.29;100774.16;5075528;28;45337;-64
2022/06/30 10:36:05;;;;;;;;;6.00;5.00;;;;;16.01;74.96;100783.91;5077410;27;45215;-63
2022/06/30 10:38:51;;;;;;;;;6.00;3.00;;;;;15.93;75.67;100784.50;5075794;27;46101;-65
2022/06/30 10:41:18;;;;;;;;;2.67;2.67;;;;;15.86;72.88;100783.25;5067494;27;45430;-63
2022/06/30 10:44:03;;;;;;;;;4.00;3.00;;;;;15.82;73.56;100783.59;5076263;28;45261;-61
2022/06/30 10:46:30;;;;;;;;;3.00;3.00;;;;;15.81;73.47;100776.53;5075474;27;45217;-61
2022/06/30 10:48:55;;;;;;;;;4.67;3.00;;;;;15.82;73.44;100783.59;5088352;27;45332;-63
2022/06/30 10:51:22;;;;;;;;;4.00;3.00;;;;;15.75;72.73;100779.66;5073641;28;45448;-68
2022/06/30 10:53:53;;;;;;;;;3.33;3.00;;;;;15.74;74.02;100792.19;5076791;27;45380;-68
2022/06/30 10:56:23;;;;;;;;;4.67;4.00;;;;;15.72;74.72;100796.81;5077092;27;45508;-70
2022/06/30 10:59:10;;;;;;;;;6.00;3.00;;;;;15.65;75.74;100800.94;5061710;27;45445;-69
2022/06/30 11:01:36;;;;;;;;;3.67;3.67;;;;;15.61;76.25;100804.81;5074425;27;45514;-69
2022/06/30 11:04:10;;;;;;;;;4.00;4.00;;;;;15.65;75.44;100809.00;5076671;27;45378;-69
2022/06/30 11:07:07;;;;;;;;;5.00;4.00;;;;;15.70;76.04;100816.69;5072866;27;45551;-67
2022/06/30 11:09:48;;;;;;;;;5.67;4.67;;;;;15.74;75.24;100805.59;5071533;28;46077;-68
2022/06/30 11:12:15;;;;;;;;;6.67;5.00;;;;;15.82;77.29;100808.59;5076985;27;45475;-66
2022/06/30 11:14:46;;;;;;;;;4.00;4.00;;;;;15.85;75.54;100803.00;5070888;27;45441;-66
2022/06/30 11:17:13;;;;;;;;;6.00;6.00;;;;;15.86;75.04;100807.38;5076267;27;45325;-61
2022/06/30 11:19:38;;;;;;;;;4.00;4.00;;;;;15.88;74.84;100797.38;5076116;27;45372;-62
2022/06/30 11:22:07;;;;;;;;;6.00;6.00;;;;;15.89;75.58;100804.50;5075413;27;45369;-64
2022/06/30 11:24:38;;;;;;;;;8.00;4.00;;;;;15.93;75.38;100805.09;5077502;27;45805;-64
2022/06/30 11:27:24;;;;;;;;;4.00;4.00;;;;;15.94;76.23;100806.81;5065045;28;45515;-62
2022/06/30 11:30:00;;;;;;;;;9.00;6.67;;;;;15.92;75.73;100803.41;5076142;27;46075;-65
2022/06/30 11:32:26;;;;;;;;;7.67;6.00;;;;;16.00;74.38;100800.13;5066090;27;45485;-65
2022/06/30 11:34:53;;;;;;;;;4.33;3.00;;;;;16.03;75.21;100791.88;5058135;28;45437;-69